Terminal Aerodrome Forecast
Issued by NWS Lake Charles, LA

Home | Current Version | Previous Version | Text Only | Print | Product List | Glossary On
Versions: 1 2 3 4 5 6 7 8 9 10 11 12 13 14
751
FTUS44 KLCH 141734
TAFAEX
TAF
KAEX 141734Z 1418/1518 15012G18KT P6SM BKN050
     FM142300 16008KT P6SM SCT020 BKN040
     FM150200 15007KT P6SM SCT015 BKN025
     FM151000 15005KT 5SM BR VCSH OVC015
     FM151400 18013G19KT P6SM VCSH SCT015 OVC025
      TEMPO 1514/1518 3SM SHRA BKN009 OVC015=

USA.gov is the U.S. government's official web portal to all federal, state and local government web resources and services.